Mitsukawa Maru — JD2495 — position and weather

sailwx.info

Track history (hours):
 
Tides and Currents Weather Stations Pressure Air Temp Water Temp Dewpoint Dewpoint Depression Visibility Wind Speed Wind Dir Waves Ship Positions

Mitsukawa Maru

Last reported at 2014-Sep-21 17:22 UTC. Time now 2014-Sep-21 20:15 UTC.
Position N 35°34' E 139°59'.

Length 105 m; draft 6.7 m.

Type: Cargo ship. MMSI: 431000326.

Date/timePositionNaut miles runAvg speedWind from/ knotsBaromVisibWave heightAir tempDewpointWater temp
2014-Sep-21 17:22N 35°34' E 139°59'0 0.0
2014-Sep-21 16:28N 35°34' E 139°59'3 1.1
2014-Sep-21 14:07N 35°32' E 139°57'712.4
2014-Sep-21 13:33N 35°27' E 139°50'1111.0
2014-Sep-21 12:33N 35°17' E 139°45'1411.0
2014-Sep-21 11:15N 35°03' E 139°41'  
2014-Sep-19 04:33N 34°00' E 134°54'1515.0
2014-Sep-19 03:33N 34°15' E 134°58'1514.7
2014-Sep-19 02:33N 34°29' E 135°02'9 9.0
2014-Sep-19 01:33N 34°35' E 134°53'114 5.4
2014-Sep-18 04:23N 33°58' E 132°43'  
Track history (hours):
 
Tides and Currents Weather Stations Pressure Air Temp Water Temp Dewpoint Dewpoint Depression Visibility Wind Speed Wind Dir Waves Ship Positions

Mitsukawa Maru

Last reported at 2014-Sep-21 17:22 UTC. Time now 2014-Sep-21 20:15 UTC.
Position N 35°34' E 139°59'.

Length 105 m; draft 6.7 m.

Type: Cargo ship. MMSI: 431000326.

Date/timePositionNaut miles runAvg speedWind from/ knotsBaromVisibWave heightAir tempDewpointWater temp
2014-Sep-21 17:22N 35°34' E 139°59'0 0.0
2014-Sep-21 16:28N 35°34' E 139°59'3 1.1
2014-Sep-21 14:07N 35°32' E 139°57'712.4
2014-Sep-21 13:33N 35°27' E 139°50'1111.0
2014-Sep-21 12:33N 35°17' E 139°45'1411.0
2014-Sep-21 11:15N 35°03' E 139°41'  
2014-Sep-19 04:33N 34°00' E 134°54'1515.0
2014-Sep-19 03:33N 34°15' E 134°58'1514.7
2014-Sep-19 02:33N 34°29' E 135°02'9 9.0
2014-Sep-19 01:33N 34°35' E 134°53'114 5.4
2014-Sep-18 04:23N 33°58' E 132°43'  

Dump ship's entire track history